Time;durP1;ratioP1;P1;durP2;ratioP2;P2;SDS_P1;SDS_P2;PMS_P1;PMS_P2;Temp;Humidity;BMP_temperature;BMP_pressure;BME280_temperature;BME280_humidity;BME280_pressure;Samples;Min_cycle;Max_cycle;Signal;HPM_P1;HPM_P2
2022/10/24 00:02:24;;;;;;;3.25;2.95;;;15.30;99.90;;;;;;5053928;28;20067;-84
2022/10/24 00:04:50;;;;;;;3.78;1.92;;;15.30;99.90;;;;;;5054621;28;20055;-85
2022/10/24 00:07:16;;;;;;;5.45;2.15;;;15.20;99.90;;;;;;5055353;28;20106;-82
2022/10/24 00:09:41;;;;;;;2.95;1.90;;;15.30;99.90;;;;;;5054574;28;20485;-83
2022/10/24 00:12:08;;;;;;;8.55;2.13;;;15.30;99.90;;;;;;5054937;28;20037;-84
2022/10/24 00:14:35;;;;;;;8.80;2.00;;;15.30;99.90;;;;;;5054943;28;20443;-83
2022/10/24 00:17:01;;;;;;;7.82;2.10;;;15.30;99.90;;;;;;5054768;28;20049;-83
2022/10/24 00:19:26;;;;;;;2.55;1.60;;;15.30;99.90;;;;;;5054835;28;20044;-83
2022/10/24 00:21:52;;;;;;;3.25;1.92;;;15.20;99.90;;;;;;5087274;28;20055;-83
2022/10/24 00:24:18;;;;;;;2.10;1.90;;;15.20;99.90;;;;;;5054207;28;20052;-82
2022/10/24 00:26:44;;;;;;;10.50;2.53;;;15.20;99.90;;;;;;5054566;28;20095;-85
2022/10/24 00:29:10;;;;;;;5.93;1.33;;;15.10;99.90;;;;;;5054347;28;20040;-84
2022/10/24 00:31:36;;;;;;;4.13;1.60;;;15.10;99.90;;;;;;5053404;28;20056;-84
2022/10/24 00:34:02;;;;;;;2.75;1.73;;;15.10;99.90;;;;;;5053238;28;20057;-85
2022/10/24 00:36:28;;;;;;;3.60;1.60;;;15.10;99.90;;;;;;5054325;28;20081;-83
2022/10/24 00:38:54;;;;;;;3.67;2.53;;;15.20;99.90;;;;;;5054353;28;20091;-83
2022/10/24 00:41:28;;;;;;;2.13;1.67;;;15.20;99.90;;;;;;5054721;28;20041;-83
2022/10/24 00:44:23;;;;;;;3.17;1.50;;;15.20;99.90;;;;;;5054296;28;20084;-84
2022/10/24 00:46:55;;;;;;;4.88;1.60;;;15.20;99.90;;;;;;5054193;28;20041;-84
2022/10/24 00:49:27;;;;;;;4.43;1.73;;;15.10;99.90;;;;;;5053429;28;20426;-84
2022/10/24 00:51:59;;;;;;;6.15;1.67;;;15.10;99.90;;;;;;5054249;28;20116;-82
2022/10/24 00:54:25;;;;;;;1.58;1.33;;;15.10;99.90;;;;;;5052831;28;20467;-84
2022/10/24 00:57:03;;;;;;;2.90;1.73;;;15.10;99.90;;;;;;5054595;28;20052;-85
2022/10/24 00:59:29;;;;;;;3.40;1.67;;;15.10;99.90;;;;;;5054068;28;20076;-84
2022/10/24 01:01:55;;;;;;;3.13;1.70;;;15.10;99.90;;;;;;5086923;28;20575;-85
2022/10/24 01:04:21;;;;;;;3.80;1.92;;;15.10;99.90;;;;;;5052911;28;20106;-83
2022/10/24 01:06:56;;;;;;;2.85;1.50;;;15.10;99.90;;;;;;5052442;28;20053;-83
2022/10/24 01:09:40;;;;;;;1.70;1.45;;;15.00;99.90;;;;;;5053941;28;20056;-83
2022/10/24 01:12:29;;;;;;;3.58;1.42;;;15.00;99.90;;;;;;5086725;28;20063;-85
2022/10/24 01:15:09;;;;;;;3.17;1.48;;;15.00;99.90;;;;;;5054209;28;20140;-85
2022/10/24 01:17:58;;;;;;;2.28;1.92;;;15.00;99.90;;;;;;5053789;28;20099;-85
2022/10/24 01:20:52;;;;;;;2.70;1.98;;;15.10;99.90;;;;;;5053686;28;20084;-84
2022/10/24 01:23:41;;;;;;;5.22;1.48;;;15.10;99.90;;;;;;5053586;28;20095;-83
2022/10/24 01:26:26;;;;;;;3.08;1.30;;;15.10;99.90;;;;;;5053945;28;20049;-84
2022/10/24 01:29:16;;;;;;;2.83;2.00;;;15.20;99.90;;;;;;5053289;28;20128;-84
2022/10/24 01:32:11;;;;;;;2.78;1.90;;;15.30;99.90;;;;;;5053546;28;20045;-84
2022/10/24 01:35:01;;;;;;;3.97;2.03;;;15.30;99.90;;;;;;5042188;28;20057;-86
2022/10/24 01:37:50;;;;;;;4.35;1.60;;;15.40;99.90;;;;;;5068767;28;20045;-86
2022/10/24 01:40:25;;;;;;;12.77;2.30;;;15.40;99.90;;;;;;5053402;28;20053;-84
2022/10/24 01:42:52;;;;;;;3.45;1.92;;;15.40;99.90;;;;;;5053747;28;20076;-85
2022/10/24 01:45:24;;;;;;;2.63;1.52;;;15.50;99.90;;;;;;5052801;28;20429;-85
2022/10/24 01:47:53;;;;;;;3.97;2.15;;;15.50;99.90;;;;;;5052336;28;20041;-85
2022/10/24 01:50:22;;;;;;;4.57;1.65;;;15.60;99.90;;;;;;5053221;28;20053;-84
2022/10/24 01:52:49;;;;;;;2.72;1.70;;;15.60;99.90;;;;;;5054870;28;20060;-84
2022/10/24 01:55:15;;;;;;;2.92;2.17;;;15.60;99.90;;;;;;5056448;28;20051;-87
2022/10/24 01:57:41;;;;;;;2.75;2.33;;;15.70;99.90;;;;;;5055391;28;20033;-86
2022/10/24 02:00:13;;;;;;;5.55;2.35;;;15.70;99.90;;;;;;5053870;28;20041;-85
2022/10/24 02:02:42;;;;;;;4.50;2.40;;;15.70;99.90;;;;;;5052845;28;20084;-85
2022/10/24 02:05:31;;;;;;;3.60;1.92;;;15.70;99.90;;;;;;5051488;28;20074;-84
2022/10/24 02:08:04;;;;;;;2.85;1.67;;;15.80;99.90;;;;;;5052568;28;20048;-84
2022/10/24 02:10:49;;;;;;;4.75;2.05;;;15.80;99.90;;;;;;5052777;28;20089;-85
2022/10/24 02:13:24;;;;;;;3.15;1.70;;;15.80;99.90;;;;;;5051776;28;20047;-85
2022/10/24 02:15:54;;;;;;;5.22;1.90;;;15.80;99.90;;;;;;5052879;28;20056;-85
2022/10/24 02:18:20;;;;;;;2.67;2.10;;;15.80;99.90;;;;;;5052793;28;20052;-84
2022/10/24 02:21:07;;;;;;;3.92;2.08;;;15.80;99.90;;;;;;5052469;28;20045;-85
2022/10/24 02:23:42;;;;;;;4.20;2.42;;;15.90;99.90;;;;;;5052784;28;20139;-84
2022/10/24 02:26:28;;;;;;;7.40;1.83;;;15.90;99.90;;;;;;5052293;28;20049;-85
2022/10/24 02:28:57;;;;;;;6.28;1.77;;;15.80;99.90;;;;;;5052191;28;20076;-85
2022/10/24 02:31:30;;;;;;;5.82;2.67;;;15.80;99.90;;;;;;5052170;28;20071;-84
2022/10/24 02:33:57;;;;;;;3.78;2.17;;;15.80;99.90;;;;;;5085080;28;20493;-85
2022/10/24 02:36:27;;;;;;;3.20;1.75;;;15.80;99.90;;;;;;5054447;28;20045;-85
2022/10/24 02:38:55;;;;;;;3.42;2.15;;;15.90;99.90;;;;;;5054940;28;20048;-86
2022/10/24 02:41:42;;;;;;;4.70;2.20;;;15.80;99.90;;;;;;5054528;28;20049;-84
2022/10/24 02:44:08;;;;;;;4.93;1.67;;;15.80;99.90;;;;;;5055356;28;20475;-84
2022/10/24 02:46:35;;;;;;;3.55;1.48;;;15.80;99.90;;;;;;5054453;28;20045;-85
2022/10/24 02:49:02;;;;;;;4.43;1.83;;;15.80;99.90;;;;;;5054034;28;20044;-85
2022/10/24 02:51:32;;;;;;;5.32;2.50;;;15.90;99.90;;;;;;5053001;28;20041;-84
2022/10/24 02:53:59;;;;;;;7.97;2.25;;;15.90;99.90;;;;;;5051872;28;20041;-84
2022/10/24 02:56:26;;;;;;;4.35;2.10;;;15.90;99.90;;;;;;5051159;28;20121;-85
2022/10/24 02:58:51;;;;;;;5.47;1.90;;;15.90;99.90;;;;;;5051653;28;20061;-85
2022/10/24 03:01:17;;;;;;;3.92;2.65;;;15.90;99.90;;;;;;5051824;28;20045;-85
2022/10/24 03:03:43;;;;;;;3.85;2.20;;;16.00;99.90;;;;;;5051910;28;20060;-85
2022/10/24 03:06:09;;;;;;;6.45;2.03;;;15.90;99.90;;;;;;5050390;28;20053;-86
2022/10/24 03:08:34;;;;;;;3.97;1.85;;;15.90;99.90;;;;;;5051474;28;20120;-84
2022/10/24 03:11:00;;;;;;;3.83;2.25;;;15.90;99.90;;;;;;5084343;28;20041;-85
2022/10/24 03:13:26;;;;;;;2.90;2.40;;;16.00;99.90;;;;;;5051997;28;20452;-86
2022/10/24 03:15:51;;;;;;;8.65;2.40;;;16.00;99.90;;;;;;5051450;28;20047;-85
2022/10/24 03:18:17;;;;;;;6.28;2.20;;;16.00;99.90;;;;;;5067081;28;20052;-84
2022/10/24 03:20:42;;;;;;;4.18;2.10;;;16.00;99.90;;;;;;5051641;28;20056;-86
2022/10/24 03:23:08;;;;;;;2.45;1.95;;;16.00;99.90;;;;;;5084319;28;20061;-86
2022/10/24 03:25:34;;;;;;;6.50;2.40;;;16.00;99.90;;;;;;5051694;28;20064;-85
2022/10/24 03:28:00;;;;;;;4.75;2.22;;;16.00;99.90;;;;;;5051841;28;20037;-85
2022/10/24 03:30:25;;;;;;;4.55;2.20;;;16.00;99.90;;;;;;5051411;28;20040;-85
2022/10/24 03:32:51;;;;;;;5.32;2.38;;;16.00;99.90;;;;;;5051567;28;20146;-85
2022/10/24 03:35:17;;;;;;;7.15;2.20;;;16.10;99.90;;;;;;5051838;28;20098;-85
2022/10/24 03:37:43;;;;;;;3.97;2.00;;;16.00;99.90;;;;;;5051315;28;20430;-85
2022/10/24 03:40:10;;;;;;;3.92;2.50;;;16.00;99.90;;;;;;5084245;28;20049;-85
2022/10/24 03:42:35;;;;;;;4.47;2.15;;;16.00;99.90;;;;;;5051369;28;20049;-85
2022/10/24 03:45:01;;;;;;;7.05;2.17;;;15.90;99.90;;;;;;5051529;28;20132;-86
2022/10/24 03:47:27;;;;;;;4.43;1.50;;;15.90;99.90;;;;;;5033645;28;20041;-85
2022/10/24 03:49:52;;;;;;;2.45;2.03;;;15.90;99.90;;;;;;5050704;28;20044;-85
2022/10/24 03:52:18;;;;;;;6.93;2.40;;;16.00;99.90;;;;;;5051675;28;20456;-84
2022/10/24 03:54:44;;;;;;;3.85;2.22;;;15.90;99.90;;;;;;5051387;28;20116;-84
2022/10/24 03:57:09;;;;;;;6.20;2.30;;;15.90;99.90;;;;;;5051638;28;20157;-85
2022/10/24 03:59:36;;;;;;;4.38;2.40;;;15.90;99.90;;;;;;5050965;28;20049;-84
2022/10/24 04:02:02;;;;;;;3.22;2.28;;;15.90;99.90;;;;;;5051546;28;20055;-85
2022/10/24 04:04:28;;;;;;;4.22;2.83;;;15.90;99.90;;;;;;5051380;28;20049;-84
2022/10/24 04:06:54;;;;;;;7.93;2.55;;;15.90;99.90;;;;;;5051138;28;20055;-85
2022/10/24 04:09:20;;;;;;;5.75;2.53;;;15.80;99.90;;;;;;5054864;28;20085;-85
2022/10/24 04:11:47;;;;;;;5.18;2.63;;;15.90;99.90;;;;;;5054748;28;20049;-85
2022/10/24 04:14:13;;;;;;;4.15;1.92;;;15.80;99.90;;;;;;5055189;28;20045;-85
2022/10/24 04:16:39;;;;;;;4.70;2.30;;;15.70;99.90;;;;;;5054836;28;20471;-85
2022/10/24 04:19:04;;;;;;;4.03;2.38;;;15.70;99.90;;;;;;5054822;28;20053;-85
2022/10/24 04:21:30;;;;;;;5.22;2.47;;;15.70;99.90;;;;;;5054628;28;20041;-85
2022/10/24 04:23:56;;;;;;;4.78;2.85;;;15.70;99.90;;;;;;5054051;28;20147;-85
2022/10/24 04:26:22;;;;;;;4.70;2.60;;;15.60;99.90;;;;;;5054687;28;20455;-85
2022/10/24 04:28:48;;;;;;;11.13;3.10;;;15.60;99.90;;;;;;5054457;28;20113;-86
2022/10/24 04:31:14;;;;;;;7.28;2.40;;;15.50;99.90;;;;;;5054462;28;20063;-86
2022/10/24 04:33:40;;;;;;;5.63;2.42;;;15.50;99.90;;;;;;5054600;28;20467;-85
2022/10/24 04:36:06;;;;;;;6.80;2.67;;;15.40;99.90;;;;;;5054366;28;20049;-86
2022/10/24 04:38:32;;;;;;;4.40;2.15;;;15.40;99.90;;;;;;5053210;28;20048;-86
2022/10/24 04:40:57;;;;;;;6.63;2.70;;;15.30;99.90;;;;;;5054353;28;20049;-85
2022/10/24 04:43:24;;;;;;;7.40;2.45;;;15.30;99.90;;;;;;5036695;28;20131;-85
2022/10/24 04:45:50;;;;;;;5.13;2.22;;;15.20;99.90;;;;;;5054364;28;20487;-85
2022/10/24 04:48:16;;;;;;;3.25;2.08;;;15.10;99.90;;;;;;5052990;28;20051;-83
2022/10/24 04:50:43;;;;;;;4.75;2.10;;;15.10;99.90;;;;;;5055385;28;20104;-82
2022/10/24 04:53:09;;;;;;;5.32;2.35;;;15.10;99.90;;;;;;5057340;28;20096;-83
2022/10/24 04:55:35;;;;;;;2.42;1.98;;;15.00;99.90;;;;;;5057887;28;20033;-82
2022/10/24 04:58:02;;;;;;;4.22;2.25;;;15.00;99.90;;;;;;5055703;28;20053;-83
2022/10/24 05:00:27;;;;;;;3.50;2.25;;;15.00;99.90;;;;;;5054350;28;20452;-83
2022/10/24 05:02:53;;;;;;;6.30;2.35;;;15.00;99.90;;;;;;5054146;28;20041;-83
2022/10/24 05:05:19;;;;;;;5.10;2.63;;;15.00;99.90;;;;;;5053111;28;20087;-83
2022/10/24 05:07:45;;;;;;;7.13;2.33;;;14.90;99.90;;;;;;5053531;28;20049;-83
2022/10/24 05:10:13;;;;;;;5.57;2.28;;;15.00;99.90;;;;;;5053884;28;20045;-83
2022/10/24 05:12:39;;;;;;;6.38;2.58;;;14.90;99.90;;;;;;5053953;28;20049;-84
2022/10/24 05:15:06;;;;;;;7.57;2.58;;;14.90;99.90;;;;;;5054111;28;20106;-82
2022/10/24 05:17:32;;;;;;;4.38;2.25;;;14.90;99.90;;;;;;5053793;28;20065;-83
2022/10/24 05:19:58;;;;;;;6.80;2.35;;;14.90;99.90;;;;;;5053391;28;20158;-83
2022/10/24 05:22:23;;;;;;;4.20;2.10;;;14.90;99.90;;;;;;5053226;28;20492;-82
2022/10/24 05:24:49;;;;;;;5.75;2.47;;;14.90;99.90;;;;;;5052023;28;20045;-83
2022/10/24 05:27:20;;;;;;;3.28;2.03;;;14.90;99.90;;;;;;5053729;28;20118;-83
2022/10/24 05:29:46;;;;;;;4.00;2.13;;;14.80;99.90;;;;;;5053454;28;20048;-83
2022/10/24 05:32:11;;;;;;;3.97;2.28;;;14.80;99.90;;;;;;5052327;28;20119;-82
2022/10/24 05:34:37;;;;;;;4.22;2.05;;;14.80;99.90;;;;;;5052373;28;20045;-83
2022/10/24 05:37:03;;;;;;;5.43;2.40;;;14.90;99.90;;;;;;5053267;28;20068;-82
2022/10/24 05:39:28;;;;;;;4.57;1.75;;;14.80;99.90;;;;;;5053156;28;20135;-82
2022/10/24 05:41:54;;;;;;;5.00;1.92;;;14.90;99.90;;;;;;5053126;28;20141;-84
2022/10/24 05:44:20;;;;;;;4.55;2.20;;;14.80;99.90;;;;;;5051627;28;20041;-82
2022/10/24 05:46:45;;;;;;;4.40;1.98;;;14.80;99.90;;;;;;5053377;28;20094;-84
2022/10/24 05:49:13;;;;;;;1.98;1.70;;;14.80;99.90;;;;;;5051485;28;20459;-84
2022/10/24 05:51:38;;;;;;;2.63;2.00;;;14.80;99.90;;;;;;5053111;28;20064;-81
2022/10/24 05:54:04;;;;;;;3.38;2.30;;;14.70;99.90;;;;;;5052011;28;20052;-84
2022/10/24 05:56:30;;;;;;;6.22;1.70;;;14.70;99.90;;;;;;5052843;28;20045;-82
2022/10/24 05:58:57;;;;;;;5.38;2.00;;;14.70;99.90;;;;;;5052834;28;20041;-83
2022/10/24 06:01:22;;;;;;;4.72;2.15;;;14.80;99.90;;;;;;5053177;28;20045;-83
2022/10/24 06:03:48;;;;;;;5.68;1.77;;;14.40;99.90;;;;;;5085122;28;20066;-83
2022/10/24 06:06:14;;;;;;;5.07;1.98;;;14.80;99.90;;;;;;5052867;28;20068;-82
2022/10/24 06:08:40;;;;;;;3.50;1.55;;;14.80;99.90;;;;;;5085584;28;20049;-82
2022/10/24 06:11:09;;;;;;;6.32;2.05;;;14.90;99.90;;;;;;5052513;28;20086;-84
2022/10/24 06:13:35;;;;;;;3.97;2.03;;;14.90;99.90;;;;;;5052360;28;20079;-83
2022/10/24 06:16:00;;;;;;;3.67;1.40;;;15.00;99.90;;;;;;5052587;28;20116;-80
2022/10/24 06:18:26;;;;;;;4.35;1.92;;;15.10;99.90;;;;;;5052595;28;20474;-86
2022/10/24 06:20:52;;;;;;;2.92;1.80;;;15.10;99.90;;;;;;5052171;28;20045;-84
2022/10/24 06:23:18;;;;;;;5.25;2.58;;;15.10;99.90;;;;;;5052070;28;20052;-82
2022/10/24 06:25:44;;;;;;;4.55;2.00;;;15.20;99.90;;;;;;5052111;28;20127;-83
2022/10/24 06:28:11;;;;;;;4.93;1.73;;;15.70;99.90;;;;;;5051850;28;20094;-81
2022/10/24 06:30:39;;;;;;;5.05;2.03;;;15.20;99.90;;;;;;5051942;28;20099;-82
2022/10/24 06:33:05;;;;;;;4.45;1.42;;;15.20;99.90;;;;;;5052038;28;20040;-85
2022/10/24 06:35:31;;;;;;;3.10;1.80;;;15.30;99.90;;;;;;5051708;28;20051;-85
2022/10/24 06:37:56;;;;;;;4.75;1.55;;;15.30;99.90;;;;;;5051126;28;20056;-77
2022/10/24 06:40:22;;;;;;;4.05;1.70;;;15.30;99.90;;;;;;5083872;28;20498;-75
2022/10/24 06:42:48;;;;;;;3.83;1.80;;;15.30;99.90;;;;;;5051900;28;20128;-85
2022/10/24 06:45:14;;;;;;;4.95;1.98;;;15.30;99.90;;;;;;5052521;28;20059;-86
2022/10/24 06:47:39;;;;;;;12.40;2.40;;;15.20;99.90;;;;;;5084411;28;20087;-84
2022/10/24 06:50:06;;;;;;;3.60;1.60;;;15.20;99.90;;;;;;5067455;28;20060;-77
2022/10/24 06:52:32;;;;;;;2.72;2.22;;;15.20;99.90;;;;;;5051665;28;20469;-81
2022/10/24 06:54:57;;;;;;;7.40;1.75;;;15.10;99.90;;;;;;5051996;28;20098;-82
2022/10/24 06:57:23;;;;;;;3.92;1.60;;;15.20;99.90;;;;;;5051743;28;20049;-82
2022/10/24 06:59:49;;;;;;;6.10;1.90;;;15.20;99.90;;;;;;5052413;28;20044;-84
2022/10/24 07:02:16;;;;;;;5.28;1.73;;;15.20;99.90;;;;;;5051532;28;20531;-82
2022/10/24 07:04:41;;;;;;;3.75;1.75;;;15.20;99.90;;;;;;5051601;28;20052;-82
2022/10/24 07:07:13;;;;;;;3.55;1.92;;;15.20;99.90;;;;;;5051425;28;20049;-82
2022/10/24 07:09:39;;;;;;;8.60;1.73;;;15.20;99.90;;;;;;5052061;28;20114;-83
2022/10/24 07:12:05;;;;;;;6.63;2.05;;;15.20;99.90;;;;;;5051872;28;20489;-83
2022/10/24 07:14:30;;;;;;;2.72;1.80;;;15.30;99.90;;;;;;5051657;28;20119;-82
2022/10/24 07:16:57;;;;;;;4.85;1.60;;;15.40;99.90;;;;;;5052390;28;20124;-83
2022/10/24 07:19:22;;;;;;;7.43;2.20;;;15.60;99.90;;;;;;5051599;28;20456;-82
2022/10/24 07:21:48;;;;;;;1.83;1.40;;;15.70;99.90;;;;;;5084385;28;20063;-82
2022/10/24 07:24:14;;;;;;;3.80;1.33;;;15.70;99.90;;;;;;5051651;28;20523;-83
2022/10/24 07:26:39;;;;;;;1.75;1.27;;;15.80;99.90;;;;;;5051983;28;20045;-82
2022/10/24 07:29:05;;;;;;;2.95;1.88;;;15.80;99.90;;;;;;5051901;28;20467;-82
2022/10/24 07:31:33;;;;;;;3.20;1.60;;;15.90;99.90;;;;;;5051384;28;20052;-83
2022/10/24 07:34:01;;;;;;;5.50;1.70;;;15.90;99.90;;;;;;5051876;28;20052;-84
2022/10/24 07:36:29;;;;;;;4.22;1.77;;;15.90;99.90;;;;;;5051346;28;20128;-82
2022/10/24 07:38:57;;;;;;;1.67;1.38;;;16.20;99.90;;;;;;5051883;28;20041;-83
2022/10/24 07:41:25;;;;;;;3.65;2.35;;;15.90;99.90;;;;;;5051744;28;20060;-83
2022/10/24 07:43:51;;;;;;;4.20;1.77;;;15.90;99.90;;;;;;5055250;28;20053;-83
2022/10/24 07:46:18;;;;;;;4.10;1.90;;;16.00;99.90;;;;;;5055453;28;20041;-83
2022/10/24 07:48:44;;;;;;;4.88;1.35;;;16.10;99.90;;;;;;5055186;28;20080;-83
2022/10/24 07:51:12;;;;;;;4.25;1.67;;;16.20;99.90;;;;;;5056112;28;20059;-83
2022/10/24 07:53:39;;;;;;;8.25;1.33;;;16.40;99.90;;;;;;5089483;28;20137;-84
2022/10/24 07:56:08;;;;;;;4.63;1.73;;;16.60;99.90;;;;;;5055988;28;20471;-82
2022/10/24 07:58:35;;;;;;;2.78;1.63;;;16.70;99.90;;;;;;5056094;28;20052;-82
2022/10/24 08:01:05;;;;;;;3.35;1.58;;;16.80;99.90;;;;;;5054987;28;20128;-82
2022/10/24 08:03:31;;;;;;;4.32;2.10;;;16.80;99.90;;;;;;5055394;28;20091;-81
2022/10/24 08:05:56;;;;;;;3.20;1.63;;;16.70;99.90;;;;;;5054577;28;20069;-81
2022/10/24 08:08:22;;;;;;;5.22;1.77;;;16.80;99.90;;;;;;5054894;28;20127;-80
2022/10/24 08:10:48;;;;;;;3.10;1.80;;;16.90;99.90;;;;;;5054876;28;20055;-80
2022/10/24 08:13:14;;;;;;;4.38;1.58;;;16.90;99.90;;;;;;5055244;28;20045;-81
2022/10/24 08:15:39;;;;;;;3.38;1.45;;;16.80;99.90;;;;;;5054851;28;20589;-81
2022/10/24 08:18:05;;;;;;;5.28;1.80;;;16.70;99.90;;;;;;5054781;28;20091;-80
2022/10/24 08:20:31;;;;;;;6.18;2.30;;;16.70;99.90;;;;;;5054975;28;20041;-81
2022/10/24 08:22:57;;;;;;;8.75;2.08;;;16.70;99.90;;;;;;5055000;28;20095;-81
2022/10/24 08:25:22;;;;;;;3.30;1.50;;;16.70;99.90;;;;;;5054591;28;20478;-83
2022/10/24 08:27:48;;;;;;;3.63;1.80;;;16.90;99.90;;;;;;5053414;28;20171;-80
2022/10/24 08:30:16;;;;;;;5.65;1.73;;;16.90;99.90;;;;;;5054614;28;20048;-80
2022/10/24 08:32:42;;;;;;;5.05;1.90;;;16.90;99.90;;;;;;5054500;28;20455;-82
2022/10/24 08:35:08;;;;;;;2.83;1.77;;;16.90;99.90;;;;;;5054993;28;20052;-81
2022/10/24 08:37:37;;;;;;;3.95;1.80;;;16.90;99.90;;;;;;5053631;28;20071;-82
2022/10/24 08:40:08;;;;;;;3.70;1.42;;;16.80;99.90;;;;;;5054664;28;20067;-81
2022/10/24 08:42:34;;;;;;;4.60;1.38;;;16.90;99.90;;;;;;5054632;28;20116;-80
2022/10/24 08:45:00;;;;;;;6.30;1.60;;;16.90;99.90;;;;;;5053507;28;20064;-85
2022/10/24 08:47:45;;;;;;;4.60;1.50;;;16.90;99.90;;;;;;5054393;28;20098;-84
2022/10/24 08:50:28;;;;;;;4.45;1.40;;;16.90;99.90;;;;;;5054400;28;20048;-84
2022/10/24 08:53:08;;;;;;;5.15;1.65;;;16.90;99.90;;;;;;5086603;28;20044;-83
2022/10/24 08:55:44;;;;;;;9.85;2.50;;;16.80;99.90;;;;;;5053464;28;20049;-82
2022/10/24 08:58:17;;;;;;;6.10;1.80;;;16.80;99.90;;;;;;5054177;28;20092;-83
2022/10/24 09:00:47;;;;;;;3.88;2.20;;;16.90;99.90;;;;;;5054041;28;20036;-84
2022/10/24 09:03:21;;;;;;;4.05;1.50;;;16.90;99.90;;;;;;5054037;28;20413;-81
2022/10/24 09:05:50;;;;;;;5.78;1.98;;;17.10;99.90;;;;;;5053715;28;20099;-82
2022/10/24 09:08:33;;;;;;;4.45;1.60;;;17.20;99.90;;;;;;5054188;28;20037;-86
2022/10/24 09:11:01;;;;;;;4.25;1.85;;;17.30;99.90;;;;;;5053929;28;20060;-85
2022/10/24 09:13:29;;;;;;;3.35;2.00;;;17.40;99.90;;;;;;5086192;28;20124;-83
2022/10/24 09:15:55;;;;;;;8.68;2.05;;;17.40;99.90;;;;;;5053833;28;20098;-84
2022/10/24 09:18:29;;;;;;;6.82;2.22;;;17.40;99.90;;;;;;5054067;28;20048;-83
2022/10/24 09:20:56;;;;;;;2.70;1.63;;;17.50;99.90;;;;;;5054314;28;20107;-83
2022/10/24 09:23:24;;;;;;;3.70;1.65;;;17.60;99.90;;;;;;5053689;28;20049;-84
2022/10/24 09:25:53;;;;;;;8.35;1.67;;;17.60;99.90;;;;;;5052559;28;20053;-83
2022/10/24 09:28:20;;;;;;;4.28;1.75;;;17.70;99.90;;;;;;5053362;28;20141;-82
2022/10/24 09:30:46;;;;;;;3.78;2.53;;;17.70;99.90;;;;;;5053551;28;20049;-83
2022/10/24 09:33:28;;;;;;;3.03;1.42;;;17.70;99.90;;;;;;5053468;28;20041;-84
2022/10/24 09:35:57;;;;;;;4.78;1.90;;;17.70;99.90;;;;;;5053985;28;20049;-82
2022/10/24 09:38:33;;;;;;;5.07;1.85;;;17.60;99.90;;;;;;5053408;28;20051;-83
2022/10/24 09:41:14;;;;;;;3.25;1.67;;;17.50;99.90;;;;;;5053450;28;20052;-82
2022/10/24 09:43:43;;;;;;;5.50;1.52;;;17.40;99.90;;;;;;5053315;28;20052;-83
2022/10/24 09:46:35;;;;;;;4.78;2.33;;;17.40;99.90;;;;;;5053627;28;20091;-83
2022/10/24 09:49:19;;;;;;;5.23;1.23;;;17.40;99.90;;;;;;5053125;28;20045;-84
2022/10/24 09:52:20;;;;;;;5.57;1.70;;;17.40;99.90;;;;;;5053198;28;20045;-83
2022/10/24 09:55:01;;;;;;;4.40;1.25;;;17.70;99.90;;;;;;5053064;28;20053;-82
2022/10/24 09:57:37;;;;;;;4.22;1.85;;;17.80;99.90;;;;;;5085682;28;20040;-83
2022/10/24 10:00:04;;;;;;;2.08;1.38;;;17.90;99.90;;;;;;5052964;28;20045;-81
2022/10/24 10:02:34;;;;;;;1.77;1.30;;;18.00;99.90;;;;;;5069060;28;20049;-82
2022/10/24 10:05:03;;;;;;;3.15;1.65;;;18.00;99.90;;;;;;5052429;28;20200;-82
2022/10/24 10:07:31;;;;;;;2.72;1.48;;;18.00;99.90;;;;;;5084650;28;20450;-84
2022/10/24 10:10:01;;;;;;;8.13;2.10;;;17.90;99.90;;;;;;5053144;28;20053;-82
2022/10/24 10:12:30;;;;;;;2.53;1.58;;;17.90;99.90;;;;;;5052591;28;20077;-83
2022/10/24 10:14:56;;;;;;;6.70;1.50;;;17.90;99.90;;;;;;5052431;28;20071;-84
2022/10/24 10:17:27;;;;;;;2.78;1.55;;;17.90;99.90;;;;;;5052545;28;20121;-83
2022/10/24 10:19:57;;;;;;;3.03;1.60;;;18.00;99.90;;;;;;5052814;28;20060;-83
2022/10/24 10:22:40;;;;;;;2.75;1.50;;;18.00;99.90;;;;;;5053226;28;20114;-83
2022/10/24 10:25:30;;;;;;;2.92;1.60;;;17.90;99.90;;;;;;5052531;28;20098;-85
2022/10/24 10:27:57;;;;;;;4.85;1.35;;;17.80;99.90;;;;;;5068053;28;20037;-83
2022/10/24 10:30:24;;;;;;;5.90;1.63;;;17.70;99.90;;;;;;5052746;28;20183;-83
2022/10/24 10:33:17;;;;;;;4.35;1.40;;;17.70;99.90;;;;;;5052006;28;20084;-83
2022/10/24 10:36:18;;;;;;;3.88;1.77;;;17.60;99.90;;;;;;5050858;28;20048;-82
2022/10/24 10:38:55;;;;;;;5.63;2.22;;;17.70;99.90;;;;;;5023590;28;20064;-82
2022/10/24 10:41:41;;;;;;;3.47;1.55;;;17.70;99.90;;;;;;5052101;28;20048;-84
2022/10/24 10:44:27;;;;;;;3.42;1.40;;;17.70;99.90;;;;;;5052488;28;20048;-84
2022/10/24 10:47:04;;;;;;;6.40;2.22;;;17.70;99.90;;;;;;5084742;28;20151;-82
2022/10/24 10:49:41;;;;;;;4.32;1.42;;;17.80;99.90;;;;;;5051852;28;20077;-83
2022/10/24 10:52:17;;;;;;;3.22;1.88;;;17.70;99.90;;;;;;5052376;28;20051;-83
2022/10/24 10:55:09;;;;;;;3.88;1.50;;;17.90;99.90;;;;;;5053821;28;20079;-83
2022/10/24 10:58:00;;;;;;;2.45;1.50;;;18.00;99.90;;;;;;5054433;28;20052;-82
2022/10/24 11:00:42;;;;;;;5.72;1.58;;;18.20;99.90;;;;;;5052748;28;20053;-82
2022/10/24 11:03:45;;;;;;;2.08;1.15;;;18.10;99.90;;;;;;5051782;28;20045;-82
2022/10/24 11:06:32;;;;;;;3.85;1.50;;;18.10;99.90;;;;;;5051618;28;20049;-82
2022/10/24 11:09:04;;;;;;;3.05;1.00;;;18.20;99.90;;;;;;5051466;28;20091;-84
2022/10/24 11:11:52;;;;;;;3.38;1.05;;;18.30;99.90;;;;;;5052012;28;20048;-83
2022/10/24 11:14:25;;;;;;;6.93;2.38;;;18.30;99.90;;;;;;5053422;28;20167;-82
2022/10/24 11:16:54;;;;;;;2.90;1.23;;;18.40;99.90;;;;;;5052678;28;20559;-83
2022/10/24 11:19:34;;;;;;;5.72;1.60;;;18.50;99.90;;;;;;5053367;28;20045;-82
2022/10/24 11:22:02;;;;;;;3.20;1.25;;;18.50;99.90;;;;;;5054393;28;20122;-84
2022/10/24 11:24:36;;;;;;;1.75;1.20;;;18.50;99.90;;;;;;5054269;28;20437;-81
2022/10/24 11:27:39;;;;;;;4.47;2.25;;;18.40;99.90;;;;;;5052922;28;20052;-82
2022/10/24 11:30:16;;;;;;;3.05;1.60;;;18.30;99.90;;;;;;5053620;28;20057;-82
2022/10/24 11:32:49;;;;;;;5.43;1.25;;;18.20;99.90;;;;;;5051617;28;20045;-83
2022/10/24 11:35:28;;;;;;;2.60;1.40;;;18.30;99.90;;;;;;5051738;28;20471;-83
2022/10/24 11:38:19;;;;;;;3.45;1.35;;;18.30;99.90;;;;;;5051668;28;20041;-83
2022/10/24 11:40:49;;;;;;;5.85;1.48;;;18.20;99.90;;;;;;5051099;28;20049;-83
2022/10/24 11:43:37;;;;;;;3.97;1.33;;;18.20;99.90;;;;;;5051643;28;20071;-82
2022/10/24 11:46:19;;;;;;;1.92;1.00;;;18.10;99.90;;;;;;5050497;28;20587;-83
2022/10/24 11:48:54;;;;;;;4.43;1.30;;;18.20;99.90;;;;;;5051105;28;20048;-82
2022/10/24 11:51:39;;;;;;;4.07;1.27;;;18.00;99.90;;;;;;5084047;28;20370;-82
2022/10/24 11:54:29;;;;;;;3.58;1.55;;;18.00;99.90;;;;;;5051366;28;20044;-83
2022/10/24 11:57:02;;;;;;;3.00;1.20;;;17.90;99.90;;;;;;5050281;28;20061;-83
2022/10/24 11:59:29;;;;;;;4.93;1.77;;;17.90;99.90;;;;;;5051521;28;20041;-83
2022/10/24 12:01:55;;;;;;;7.68;1.20;;;17.90;99.90;;;;;;5051401;28;20053;-83
2022/10/24 12:04:30;;;;;;;4.65;1.55;;;17.80;99.90;;;;;;5051361;28;20045;-82
2022/10/24 12:07:18;;;;;;;2.97;1.40;;;17.80;99.90;;;;;;5050910;28;20063;-81
2022/10/24 12:09:55;;;;;;;2.63;1.27;;;17.70;99.90;;;;;;5051007;28;20500;-82
2022/10/24 12:12:36;;;;;;;2.72;1.20;;;17.70;99.90;;;;;;5051447;28;20478;-82
2022/10/24 12:15:07;;;;;;;3.67;1.10;;;17.60;99.90;;;;;;5051078;28;20491;-81
2022/10/24 12:17:45;;;;;;;2.65;1.35;;;17.60;99.90;;;;;;5051175;28;20051;-82
2022/10/24 12:20:16;;;;;;;3.42;1.30;;;17.70;99.90;;;;;;5051293;28;20049;-81
2022/10/24 12:22:43;;;;;;;2.55;1.20;;;17.70;99.90;;;;;;5051474;28;20078;-82
2022/10/24 12:25:31;;;;;;;2.83;1.20;;;17.80;99.90;;;;;;5049732;28;20076;-82
2022/10/24 12:28:24;;;;;;;2.38;1.10;;;17.80;99.90;;;;;;5051414;28;20059;-83
2022/10/24 12:31:10;;;;;;;2.25;1.10;;;17.70;99.90;;;;;;5054500;28;20040;-82
2022/10/24 12:33:36;;;;;;;2.63;1.10;;;17.70;99.90;;;;;;5054688;28;20060;-84
2022/10/24 12:36:02;;;;;;;3.42;1.50;;;17.70;99.90;;;;;;5053752;28;20037;-83
2022/10/24 12:38:27;;;;;;;2.90;1.38;;;17.80;99.90;;;;;;5054821;28;20333;-83
2022/10/24 12:40:54;;;;;;;1.80;1.30;;;17.80;99.90;;;;;;5054525;28;20053;-82
2022/10/24 12:43:41;;;;;;;4.18;1.25;;;17.70;99.90;;;;;;5054586;28;20045;-81
2022/10/24 12:46:13;;;;;;;2.92;1.48;;;17.70;99.90;;;;;;5054588;28;20047;-82
2022/10/24 12:48:57;;;;;;;3.65;0.95;;;17.70;99.90;;;;;;5087254;28;20041;-83
2022/10/24 12:51:37;;;;;;;5.30;1.70;;;17.70;99.90;;;;;;5054344;28;20049;-81
2022/10/24 12:54:04;;;;;;;3.10;1.27;;;17.50;99.90;;;;;;5054145;28;20071;-82
2022/10/24 12:56:32;;;;;;;3.55;1.50;;;17.50;99.90;;;;;;5053700;28;20491;-81
2022/10/24 12:59:21;;;;;;;5.28;1.42;;;17.50;99.90;;;;;;5053950;28;20037;-83
2022/10/24 13:01:48;;;;;;;3.40;1.63;;;17.40;99.90;;;;;;5058563;28;20400;-83
2022/10/24 13:04:45;;;;;;;4.30;1.65;;;17.30;99.90;;;;;;5054447;28;20068;-81
2022/10/24 13:07:14;;;;;;;3.95;1.10;;;17.20;99.90;;;;;;5054604;28;20053;-81